Time;durP1;ratioP1;P1;durP2;ratioP2;P2;SDS_P1;SDS_P2;PMS_P1;PMS_P2;Temp;Humidity;BMP_temperature;BMP_pressure;BME280_temperature;BME280_humidity;BME280_pressure;Samples;Min_cycle;Max_cycle;Signal;HPM_P1;HPM_P2
2022/10/31 00:00:12;;;;;;;13.33;9.53;;;;;;;;;;5052873;28;20180;-79
2022/10/31 00:02:38;;;;;;;14.63;9.67;;;;;;;;;;5066261;28;20345;-79
2022/10/31 00:05:05;;;;;;;18.87;9.97;;;;;;;;;;5072941;28;20210;-79
2022/10/31 00:07:30;;;;;;;12.57;9.10;;;;;;;;;;5055711;28;20226;-81
2022/10/31 00:09:56;;;;;;;12.13;8.80;;;;;;;;;;5056368;28;20372;-82
2022/10/31 00:12:22;;;;;;;13.53;9.10;;;;;;;;;;5073947;28;20194;-81
2022/10/31 00:14:48;;;;;;;11.03;9.10;;;;;;;;;;5073985;28;20183;-82
2022/10/31 00:17:14;;;;;;;15.57;9.00;;;;;;;;;;5056590;28;20175;-82
2022/10/31 00:19:40;;;;;;;12.73;8.50;;;;;;;;;;5072776;28;20191;-82
2022/10/31 00:22:06;;;;;;;16.63;9.07;;;;;;;;;;5055752;28;20210;-82
2022/10/31 00:24:32;;;;;;;11.07;8.00;;;;;;;;;;5056167;28;20179;-78
2022/10/31 00:26:58;;;;;;;12.03;8.07;;;;;;;;;;5073940;28;20176;-78
2022/10/31 00:29:24;;;;;;;13.37;8.07;;;;;;;;;;5039188;28;20274;-78
2022/10/31 00:31:50;;;;;;;13.07;8.50;;;;;;;;;;5055500;28;20194;-78
2022/10/31 00:34:16;;;;;;;11.93;8.80;;;;;;;;;;5056033;28;20195;-78
2022/10/31 00:36:42;;;;;;;15.50;8.80;;;;;;;;;;5072496;28;20207;-78
2022/10/31 00:39:08;;;;;;;11.20;8.30;;;;;;;;;;5069066;28;20305;-78
2022/10/31 00:41:34;;;;;;;14.53;8.17;;;;;;;;;;5034237;28;20243;-79
2022/10/31 00:44:00;;;;;;;16.17;10.50;;;;;;;;;;5052954;28;20431;-79
2022/10/31 00:46:26;;;;;;;16.63;9.73;;;;;;;;;;5052522;28;20202;-79
2022/10/31 00:48:52;;;;;;;15.68;11.23;;;;;;;;;;5051705;28;20426;-79
2022/10/31 00:51:18;;;;;;;16.45;11.80;;;;;;;;;;5052290;28;20416;-79
2022/10/31 00:53:44;;;;;;;16.35;11.48;;;;;;;;;;5034529;28;20439;-79
2022/10/31 00:56:11;;;;;;;17.53;11.37;;;;;;;;;;5034939;28;20427;-79
2022/10/31 00:58:37;;;;;;;18.05;12.10;;;;;;;;;;5051036;28;20416;-81
2022/10/31 01:01:03;;;;;;;15.18;10.65;;;;;;;;;;5052741;28;20507;-82
2022/10/31 01:03:30;;;;;;;16.65;11.82;;;;;;;;;;5050937;28;20485;-82
2022/10/31 01:06:04;;;;;;;16.98;12.68;;;;;;;;;;5052437;28;20420;-82
2022/10/31 01:08:30;;;;;;;18.48;12.60;;;;;;;;;;5068651;28;20418;-81
2022/10/31 01:11:05;;;;;;;17.37;11.83;;;;;;;;;;5053637;28;20244;-82
2022/10/31 01:13:31;;;;;;;16.05;11.20;;;;;;;;;;5051956;28;21264;-86
2022/10/31 01:15:59;;;;;;;16.80;11.10;;;;;;;;;;5051787;28;20451;-85
2022/10/31 01:18:26;;;;;;;14.20;10.85;;;;;;;;;;5052621;28;20477;-86
2022/10/31 01:20:59;;;;;;;15.03;10.07;;;;;;;;;;5055759;28;20263;-86
2022/10/31 01:23:25;;;;;;;14.43;9.63;;;;;;;;;;5055243;28;20254;-86
2022/10/31 01:25:59;;;;;;;16.27;9.80;;;;;;;;;;5056247;28;20222;-86
2022/10/31 01:28:25;;;;;;;17.30;11.50;;;;;;;;;;5056750;28;20486;-85
2022/10/31 01:30:51;;;;;;;13.50;9.50;;;;;;;;;;5036386;28;20211;-82
2022/10/31 01:33:17;;;;;;;18.83;9.73;;;;;;;;;;5056362;28;20180;-81
2022/10/31 01:35:43;;;;;;;15.23;9.70;;;;;;;;;;5038749;28;20176;-81
2022/10/31 01:38:09;;;;;;;16.00;10.80;;;;;;;;;;5055661;28;20512;-81
2022/10/31 01:40:35;;;;;;;13.40;10.55;;;;;;;;;;5055118;28;20497;-81
2022/10/31 01:43:01;;;;;;;15.47;9.57;;;;;;;;;;5056315;28;20200;-81
2022/10/31 01:45:26;;;;;;;14.43;9.45;;;;;;;;;;5038615;28;20473;-81
2022/10/31 01:47:52;;;;;;;15.43;11.15;;;;;;;;;;5054727;28;20479;-86
2022/10/31 01:50:38;;;;;;;15.48;11.75;;;;;;;;;;5037854;28;20424;-87
2022/10/31 01:53:06;;;;;;;16.90;10.35;;;;;;;;;;5056001;28;20510;-86
2022/10/31 01:55:36;;;;;;;18.35;11.80;;;;;;;;;;5054232;28;20420;-86
2022/10/31 01:58:10;;;;;;;14.43;10.70;;;;;;;;;;5054250;28;20424;-87
2022/10/31 02:00:36;;;;;;;15.20;10.40;;;;;;;;;;5056488;28;20175;-86
2022/10/31 02:03:02;;;;;;;16.17;10.93;;;;;;;;;;5054976;28;20447;-86
2022/10/31 02:05:29;;;;;;;19.25;12.07;;;;;;;;;;5054627;28;20446;-86
2022/10/31 02:07:58;;;;;;;15.47;11.43;;;;;;;;;;5054905;28;20560;-87
2022/10/31 02:10:25;;;;;;;17.93;10.67;;;;;;;;;;5054805;28;20188;-86
2022/10/31 02:12:52;;;;;;;14.73;10.57;;;;;;;;;;5055068;28;20188;-86
2022/10/31 02:15:18;;;;;;;16.87;10.50;;;;;;;;;;5055684;28;20275;-79
2022/10/31 02:17:44;;;;;;;20.00;10.27;;;;;;;;;;5054887;28;20227;-79
2022/10/31 02:20:10;;;;;;;15.63;10.37;;;;;;;;;;5054951;28;20290;-87
2022/10/31 02:22:46;;;;;;;18.30;10.50;;;;;;;;;;5055636;28;20200;-87
2022/10/31 02:25:30;;;;;;;16.60;10.20;;;;;;;;;;5054943;28;20210;-79
2022/10/31 02:28:02;;;;;;;13.90;9.70;;;;;;;;;;5056056;28;20168;-79
2022/10/31 02:30:34;;;;;;;14.03;9.77;;;;;;;;;;5070577;28;20172;-79
2022/10/31 02:33:11;;;;;;;15.57;10.33;;;;;;;;;;5054571;28;20180;-79
2022/10/31 02:35:37;;;;;;;13.40;9.90;;;;;;;;;;5054425;28;20194;-79
2022/10/31 02:38:06;;;;;;;13.00;9.80;;;;;;;;;;5055197;28;20188;-81
2022/10/31 02:40:35;;;;;;;13.80;10.20;;;;;;;;;;5071213;28;20251;-81
2022/10/31 02:43:19;;;;;;;14.70;9.27;;;;;;;;;;5075474;28;20238;-82
2022/10/31 02:45:49;;;;;;;18.47;9.93;;;;;;;;;;5057892;28;20183;-82
2022/10/31 02:48:19;;;;;;;14.47;10.33;;;;;;;;;;5075269;28;20215;-81
2022/10/31 02:50:49;;;;;;;17.67;9.73;;;;;;;;;;5057668;28;20229;-81
2022/10/31 02:53:16;;;;;;;16.53;9.53;;;;;;;;;;5075773;28;20243;-79
2022/10/31 02:55:51;;;;;;;15.90;10.03;;;;;;;;;;5075238;28;20248;-79
2022/10/31 02:58:20;;;;;;;14.10;10.50;;;;;;;;;;5057724;28;20179;-79
2022/10/31 03:00:54;;;;;;;16.10;11.50;;;;;;;;;;5053914;28;20478;-79
2022/10/31 03:03:34;;;;;;;15.80;12.02;;;;;;;;;;5053492;28;20435;-79
2022/10/31 03:06:00;;;;;;;17.77;10.33;;;;;;;;;;5073642;28;20187;-79
2022/10/31 03:08:30;;;;;;;18.75;13.63;;;;;;;;;;5056778;28;20414;-79
2022/10/31 03:10:58;;;;;;;23.13;14.00;;;;;;;;;;5074324;28;20414;-81
2022/10/31 03:13:24;;;;;;;16.95;12.85;;;;;;;;;;5056887;28;20459;-81
2022/10/31 03:15:52;;;;;;;16.50;12.73;;;;;;;;;;5074344;28;20406;-81
2022/10/31 03:18:30;;;;;;;18.60;12.43;;;;;;;;;;5056800;28;20464;-81
2022/10/31 03:20:59;;;;;;;17.65;11.52;;;;;;;;;;5056919;28;20414;-81
2022/10/31 03:23:25;;;;;;;19.33;12.70;;;;;;;;;;5056543;28;20441;-82
2022/10/31 03:25:53;;;;;;;17.63;11.65;;;;;;;;;;5074770;28;20407;-82
2022/10/31 03:28:22;;;;;;;18.25;12.45;;;;;;;;;;5056535;28;20413;-78
2022/10/31 03:30:50;;;;;;;14.00;10.83;;;;;;;;;;5074858;28;20395;-78
2022/10/31 03:33:18;;;;;;;17.65;13.73;;;;;;;;;;5056172;28;20445;-86
2022/10/31 03:35:47;;;;;;;18.10;14.27;;;;;;;;;;5056165;28;20402;-86
2022/10/31 03:38:14;;;;;;;21.50;14.95;;;;;;;;;;5056928;28;20409;-86
2022/10/31 03:40:41;;;;;;;18.90;15.05;;;;;;;;;;5072702;28;20426;-86
2022/10/31 03:43:11;;;;;;;20.38;13.98;;;;;;;;;;5055564;28;20453;-78
2022/10/31 03:45:41;;;;;;;22.40;13.65;;;;;;;;;;5073449;28;20398;-78
2022/10/31 03:48:07;;;;;;;19.88;12.65;;;;;;;;;;5073173;28;20406;-78
2022/10/31 03:50:38;;;;;;;15.77;11.13;;;;;;;;;;5073307;28;20274;-78
2022/10/31 03:53:08;;;;;;;15.20;11.90;;;;;;;;;;5056637;28;20214;-78
2022/10/31 03:55:47;;;;;;;22.45;14.48;;;;;;;;;;5073772;28;20418;-78
2022/10/31 03:58:16;;;;;;;23.55;16.40;;;;;;;;;;5055194;28;20426;-77
2022/10/31 04:00:44;;;;;;;23.00;15.85;;;;;;;;;;5073044;28;20429;-78
2022/10/31 04:03:12;;;;;;;19.25;14.27;;;;;;;;;;5086244;28;20428;-78
2022/10/31 04:05:39;;;;;;;20.90;14.43;;;;;;;;;;5075197;28;20430;-77
2022/10/31 04:08:06;;;;;;;21.52;15.35;;;;;;;;;;5054840;28;20464;-77
2022/10/31 04:10:33;;;;;;;21.77;16.42;;;;;;;;;;5052268;28;20428;-78
2022/10/31 04:13:05;;;;;;;27.33;17.65;;;;;;;;;;5053370;28;20464;-78
2022/10/31 04:15:31;;;;;;;23.17;16.67;;;;;;;;;;5054533;28;20472;-78
2022/10/31 04:17:58;;;;;;;21.02;16.90;;;;;;;;;;5055120;28;20456;-83
2022/10/31 04:20:36;;;;;;;22.75;16.38;;;;;;;;;;5064527;28;20421;-82
2022/10/31 04:23:25;;;;;;;23.70;17.38;;;;;;;;;;5054952;28;20434;-81
2022/10/31 04:26:02;;;;;;;18.57;13.77;;;;;;;;;;5041770;28;20206;-81
2022/10/31 04:28:53;;;;;;;22.45;14.90;;;;;;;;;;5052100;28;20418;-81
2022/10/31 04:31:19;;;;;;;21.17;16.48;;;;;;;;;;5055805;28;20410;-82
2022/10/31 04:33:45;;;;;;;23.13;15.73;;;;;;;;;;5038155;28;20415;-86
2022/10/31 04:36:11;;;;;;;23.40;17.35;;;;;;;;;;5055424;28;20402;-86
2022/10/31 04:38:37;;;;;;;20.30;14.57;;;;;;;;;;5056080;28;20183;-86
2022/10/31 04:41:03;;;;;;;17.50;13.67;;;;;;;;;;5032358;28;20235;-86
2022/10/31 04:43:29;;;;;;;20.20;14.13;;;;;;;;;;5051595;28;20211;-86
2022/10/31 04:45:55;;;;;;;20.93;15.07;;;;;;;;;;5036698;28;20175;-86
2022/10/31 04:48:21;;;;;;;17.90;13.67;;;;;;;;;;5052726;28;20180;-86
2022/10/31 04:50:47;;;;;;;26.17;18.10;;;;;;;;;;5035145;28;20431;-78
2022/10/31 04:53:13;;;;;;;24.93;16.73;;;;;;;;;;5038029;22;20448;-86
2022/10/31 04:55:39;;;;;;;24.55;17.33;;;;;;;;;;5058280;28;20432;-86
2022/10/31 04:58:05;;;;;;;19.80;14.93;;;;;;;;;;5082189;28;20198;-82
2022/10/31 05:00:31;;;;;;;22.45;17.08;;;;;;;;;;5065668;28;20432;-81
2022/10/31 05:02:58;;;;;;;25.30;17.45;;;;;;;;;;5055763;28;20452;-81
2022/10/31 05:05:25;;;;;;;19.10;16.05;;;;;;;;;;5072697;28;20425;-82
2022/10/31 05:07:51;;;;;;;20.38;16.42;;;;;;;;;;5075436;28;20414;-82
2022/10/31 05:10:19;;;;;;;21.90;17.92;;;;;;;;;;5074042;28;20434;-81
2022/10/31 05:12:52;;;;;;;24.00;18.00;;;;;;;;;;5062750;28;20527;-82
2022/10/31 05:15:19;;;;;;;22.58;17.73;;;;;;;;;;5060997;28;20419;-81
2022/10/31 05:17:45;;;;;;;23.17;16.67;;;;;;;;;;5056877;28;20406;-82
2022/10/31 05:20:12;;;;;;;24.55;17.33;;;;;;;;;;5073196;28;20422;-81
2022/10/31 05:22:38;;;;;;;23.80;18.63;;;;;;;;;;5058139;28;20427;-81
2022/10/31 05:25:04;;;;;;;23.07;15.13;;;;;;;;;;5074899;28;20187;-79
2022/10/31 05:27:30;;;;;;;21.30;15.73;;;;;;;;;;5066918;28;20241;-79
2022/10/31 05:29:56;;;;;;;27.13;17.03;;;;;;;;;;5072724;28;20183;-79
2022/10/31 05:32:22;;;;;;;24.60;17.07;;;;;;;;;;5066855;28;20191;-79
2022/10/31 05:34:48;;;;;;;25.37;16.27;;;;;;;;;;5083429;28;20234;-79
2022/10/31 05:37:14;;;;;;;23.17;16.43;;;;;;;;;;5096342;28;20196;-79
2022/10/31 05:39:40;;;;;;;24.90;16.83;;;;;;;;;;5079350;28;20186;-79
2022/10/31 05:42:06;;;;;;;22.43;16.67;;;;;;;;;;5081262;28;20250;-82
2022/10/31 05:44:32;;;;;;;22.23;16.37;;;;;;;;;;5063148;28;20289;-81
2022/10/31 05:46:58;;;;;;;20.63;15.77;;;;;;;;;;5080179;28;20182;-81
2022/10/31 05:49:24;;;;;;;20.60;14.60;;;;;;;;;;5096442;28;20179;-82
2022/10/31 05:51:50;;;;;;;19.10;14.70;;;;;;;;;;5058825;28;20192;-82
2022/10/31 05:54:16;;;;;;;21.17;15.10;;;;;;;;;;5055421;28;20263;-81
2022/10/31 05:56:42;;;;;;;17.90;14.10;;;;;;;;;;5075423;28;20214;-78
2022/10/31 05:59:08;;;;;;;22.00;15.03;;;;;;;;;;5058591;28;20198;-78
2022/10/31 06:01:34;;;;;;;18.43;15.10;;;;;;;;;;5056536;28;20199;-78
2022/10/31 06:03:59;;;;;;;25.90;16.50;;;;;;;;;;5039238;28;20223;-78
2022/10/31 06:06:25;;;;;;;22.57;16.07;;;;;;;;;;5067521;28;20194;-78
2022/10/31 06:08:51;;;;;;;21.47;15.37;;;;;;;;;;5083622;28;20187;-78
2022/10/31 06:11:17;;;;;;;23.13;16.47;;;;;;;;;;5060422;28;20187;-78
2022/10/31 06:13:44;;;;;;;26.73;19.13;;;;;;;;;;5054549;28;20428;-79
2022/10/31 06:16:10;;;;;;;23.50;16.53;;;;;;;;;;5070731;28;20433;-79
2022/10/31 06:18:36;;;;;;;21.07;15.57;;;;;;;;;;5078481;28;20199;-79
2022/10/31 06:21:02;;;;;;;20.43;14.93;;;;;;;;;;5054872;28;20188;-79
2022/10/31 06:23:28;;;;;;;23.23;15.23;;;;;;;;;;5055223;28;20227;-79
2022/10/31 06:25:55;;;;;;;15.83;13.83;;;;;;;;;;5038219;28;20176;-79
2022/10/31 06:28:21;;;;;;;20.50;14.00;;;;;;;;;;5053918;28;20176;-79
2022/10/31 06:30:47;;;;;;;22.20;15.97;;;;;;;;;;5037756;28;20192;-79
2022/10/31 06:33:13;;;;;;;20.90;16.17;;;;;;;;;;5053004;28;20187;-79
2022/10/31 06:35:45;;;;;;;20.50;15.60;;;;;;;;;;5037700;28;20185;-79
2022/10/31 06:38:10;;;;;;;19.67;14.60;;;;;;;;;;5053527;28;20180;-81
2022/10/31 06:40:36;;;;;;;23.23;15.57;;;;;;;;;;5054164;28;20180;-81
2022/10/31 06:43:02;;;;;;;26.03;16.43;;;;;;;;;;5037486;28;20298;-81
2022/10/31 06:45:29;;;;;;;24.70;17.17;;;;;;;;;;5038375;28;20182;-86
2022/10/31 06:47:55;;;;;;;25.37;17.77;;;;;;;;;;5055798;28;20184;-81
2022/10/31 06:50:22;;;;;;;29.83;18.60;;;;;;;;;;5055334;28;20176;-81
2022/10/31 06:52:55;;;;;;;34.07;19.70;;;;;;;;;;5054197;28;20180;-81
2022/10/31 06:55:22;;;;;;;37.67;22.23;;;;;;;;;;5055102;28;20230;-81
2022/10/31 06:57:59;;;;;;;59.97;25.53;;;;;;;;;;5054274;28;20180;-81
2022/10/31 07:00:26;;;;;;;82.70;26.47;;;;;;;;;;5055158;28;20180;-81
2022/10/31 07:03:02;;;;;;;69.60;25.90;;;;;;;;;;5054981;28;20218;-81
2022/10/31 07:05:28;;;;;;;96.70;26.03;;;;;;;;;;5055135;28;20181;-86
2022/10/31 07:07:55;;;;;;;93.17;26.93;;;;;;;;;;5053772;28;20176;-86
2022/10/31 07:10:21;;;;;;;101.20;28.33;;;;;;;;;;5054014;28;20183;-86
2022/10/31 07:12:47;;;;;;;93.77;28.40;;;;;;;;;;5037324;28;20279;-86
2022/10/31 07:15:13;;;;;;;55.73;27.67;;;;;;;;;;5053907;28;20211;-87
2022/10/31 07:17:39;;;;;;;116.07;26.20;;;;;;;;;;5053936;28;20184;-86
2022/10/31 07:20:06;;;;;;;140.03;27.73;;;;;;;;;;5053686;28;20184;-79
2022/10/31 07:22:33;;;;;;;54.67;25.47;;;;;;;;;;5053596;28;20186;-79
2022/10/31 07:24:59;;;;;;;129.90;26.40;;;;;;;;;;5053712;28;20175;-79
2022/10/31 07:27:25;;;;;;;111.10;26.60;;;;;;;;;;5053555;28;20230;-78
2022/10/31 07:29:50;;;;;;;82.17;25.83;;;;;;;;;;5037077;28;20216;-78
2022/10/31 07:32:16;;;;;;;66.17;25.47;;;;;;;;;;5053744;28;20184;-78
2022/10/31 07:34:42;;;;;;;58.43;26.23;;;;;;;;;;5036884;28;20183;-78
2022/10/31 07:37:08;;;;;;;66.70;25.10;;;;;;;;;;5053725;28;20271;-78
2022/10/31 07:39:34;;;;;;;110.43;26.63;;;;;;;;;;5053353;28;20182;-78
2022/10/31 07:42:00;;;;;;;45.00;24.90;;;;;;;;;;5036681;28;20257;-78
2022/10/31 07:44:26;;;;;;;44.20;26.80;;;;;;;;;;5036682;28;20207;-78
2022/10/31 07:46:52;;;;;;;33.43;24.83;;;;;;;;;;5036630;28;20214;-78
2022/10/31 07:49:18;;;;;;;35.40;23.53;;;;;;;;;;5053172;28;20219;-78
2022/10/31 07:51:44;;;;;;;42.70;27.40;;;;;;;;;;5053001;28;20187;-78
2022/10/31 07:54:10;;;;;;;40.87;28.07;;;;;;;;;;5036650;28;20238;-78
2022/10/31 07:56:36;;;;;;;35.77;27.37;;;;;;;;;;5036583;28;20227;-78
2022/10/31 07:59:02;;;;;;;35.67;26.70;;;;;;;;;;5036435;28;20227;-78
2022/10/31 08:01:28;;;;;;;33.67;25.97;;;;;;;;;;5053044;28;20187;-78
2022/10/31 08:03:54;;;;;;;32.97;25.90;;;;;;;;;;5036392;28;20226;-77
2022/10/31 08:06:20;;;;;;;33.10;28.95;;;;;;;;;;5035532;28;20420;-78
2022/10/31 08:08:46;;;;;;;32.17;24.83;;;;;;;;;;5035956;28;20192;-78
2022/10/31 08:11:12;;;;;;;31.10;24.33;;;;;;;;;;5036638;28;20180;-79
2022/10/31 08:13:38;;;;;;;31.60;24.60;;;;;;;;;;5053118;28;20305;-79
2022/10/31 08:16:07;;;;;;;27.87;23.40;;;;;;;;;;5053294;28;20237;-79
2022/10/31 08:18:33;;;;;;;29.73;23.53;;;;;;;;;;5052941;28;20263;-79
2022/10/31 08:20:59;;;;;;;26.03;22.97;;;;;;;;;;5052559;28;20203;-79
2022/10/31 08:23:25;;;;;;;27.73;22.03;;;;;;;;;;5052661;28;20281;-79
2022/10/31 08:25:51;;;;;;;31.80;22.57;;;;;;;;;;5036277;28;20179;-79
2022/10/31 08:28:17;;;;;;;25.30;21.47;;;;;;;;;;5048515;28;20187;-81
2022/10/31 08:30:43;;;;;;;26.57;21.07;;;;;;;;;;5072723;28;20190;-81
2022/10/31 08:33:10;;;;;;;26.83;20.50;;;;;;;;;;5073149;28;20183;-81
2022/10/31 08:35:36;;;;;;;23.73;19.77;;;;;;;;;;5072805;28;20202;-81
2022/10/31 08:38:03;;;;;;;21.17;18.93;;;;;;;;;;5072513;28;20218;-81
2022/10/31 08:40:30;;;;;;;21.63;18.77;;;;;;;;;;5072527;28;20251;-81
2022/10/31 08:43:06;;;;;;;21.33;18.13;;;;;;;;;;5072581;28;20238;-80
2022/10/31 08:45:33;;;;;;;18.83;16.93;;;;;;;;;;5072953;28;20181;-80
2022/10/31 08:48:03;;;;;;;18.73;16.03;;;;;;;;;;5073429;28;20178;-79
2022/10/31 08:50:30;;;;;;;20.10;15.57;;;;;;;;;;5071274;28;20172;-80
2022/10/31 08:53:11;;;;;;;16.03;14.43;;;;;;;;;;5072623;28;20179;-80
2022/10/31 08:55:38;;;;;;;17.30;15.30;;;;;;;;;;5072228;28;20305;-80
2022/10/31 08:58:05;;;;;;;17.20;14.00;;;;;;;;;;5055638;28;20278;-80
2022/10/31 09:00:31;;;;;;;15.20;13.60;;;;;;;;;;5072481;28;20195;-82
2022/10/31 09:02:58;;;;;;;15.03;13.27;;;;;;;;;;5072075;28;20206;-82
2022/10/31 09:05:24;;;;;;;17.27;14.03;;;;;;;;;;5072475;28;20175;-82
2022/10/31 09:07:50;;;;;;;15.23;12.90;;;;;;;;;;5073758;28;20180;-82
2022/10/31 09:10:16;;;;;;;16.03;13.67;;;;;;;;;;5072635;28;20186;-82
2022/10/31 09:12:42;;;;;;;17.33;13.73;;;;;;;;;;5072563;28;20183;-82
2022/10/31 09:15:09;;;;;;;17.07;14.03;;;;;;;;;;5055974;28;20274;-82
2022/10/31 09:17:35;;;;;;;16.23;13.80;;;;;;;;;;5056384;28;20289;-87
2022/10/31 09:20:01;;;;;;;15.30;13.60;;;;;;;;;;5056411;28;20225;-81
2022/10/31 09:22:27;;;;;;;19.03;14.53;;;;;;;;;;5073661;28;20176;-80
2022/10/31 09:24:52;;;;;;;14.67;13.10;;;;;;;;;;5072519;28;20175;-80
2022/10/31 09:27:18;;;;;;;16.00;12.67;;;;;;;;;;5072843;28;20222;-80
2022/10/31 09:29:44;;;;;;;14.77;12.23;;;;;;;;;;5072437;28;20182;-80
2022/10/31 09:32:11;;;;;;;16.47;13.70;;;;;;;;;;5056125;28;20191;-80
2022/10/31 09:34:36;;;;;;;14.90;13.37;;;;;;;;;;5073276;28;20286;-88
2022/10/31 09:37:02;;;;;;;18.93;14.70;;;;;;;;;;5057320;28;20210;-88
2022/10/31 09:39:28;;;;;;;15.43;13.43;;;;;;;;;;5073033;28;20411;-87
2022/10/31 09:41:58;;;;;;;19.30;17.20;;;;;;;;;;5058542;28;20413;-87
2022/10/31 09:44:33;;;;;;;17.57;15.57;;;;;;;;;;5076915;28;20214;-87
2022/10/31 09:47:12;;;;;;;17.63;15.73;;;;;;;;;;5076860;28;20175;-87
2022/10/31 09:49:50;;;;;;;21.73;18.73;;;;;;;;;;5074657;28;20407;-80
2022/10/31 09:52:30;;;;;;;21.40;17.47;;;;;;;;;;5075670;28;20171;-80
2022/10/31 09:55:03;;;;;;;19.13;17.13;;;;;;;;;;5075779;28;20242;-82
2022/10/31 09:57:32;;;;;;;22.77;16.47;;;;;;;;;;5076750;28;20167;-82
2022/10/31 09:59:58;;;;;;;23.97;18.37;;;;;;;;;;5076072;28;20262;-87
2022/10/31 10:02:37;;;;;;;26.57;18.63;;;;;;;;;;5059044;28;20225;-88
2022/10/31 10:05:04;;;;;;;27.03;18.33;;;;;;;;;;5075362;28;20289;-88
2022/10/31 10:07:33;;;;;;;27.13;19.63;;;;;;;;;;5075570;28;20199;-81
2022/10/31 10:10:10;;;;;;;22.50;19.37;;;;;;;;;;5075642;28;20177;-80
2022/10/31 10:12:54;;;;;;;27.57;20.97;;;;;;;;;;5076599;28;20269;-80
2022/10/31 10:15:35;;;;;;;23.97;19.80;;;;;;;;;;5075245;28;20175;-80
2022/10/31 10:18:07;;;;;;;27.13;22.63;;;;;;;;;;5075943;28;20481;-80
2022/10/31 10:20:44;;;;;;;27.30;23.00;;;;;;;;;;5075655;28;20398;-80
2022/10/31 10:23:23;;;;;;;28.23;23.50;;;;;;;;;;5075591;28;20434;-87
2022/10/31 10:25:54;;;;;;;28.87;21.57;;;;;;;;;;5075261;28;20182;-87
2022/10/31 10:28:38;;;;;;;29.85;24.52;;;;;;;;;;5074564;28;20448;-86
2022/10/31 10:31:08;;;;;;;30.40;25.77;;;;;;;;;;5074109;28;20459;-86
2022/10/31 10:33:54;;;;;;;31.67;27.42;;;;;;;;;;5074286;28;20485;-81
2022/10/31 10:36:29;;;;;;;30.03;23.33;;;;;;;;;;5068769;28;20179;-82
2022/10/31 10:38:57;;;;;;;30.20;25.40;;;;;;;;;;5075379;28;20408;-88
2022/10/31 10:41:24;;;;;;;29.48;24.20;;;;;;;;;;5075487;28;20406;-88
2022/10/31 10:43:51;;;;;;;31.23;21.63;;;;;;;;;;5074738;28;20284;-88
2022/10/31 10:49:16;;;;;;;32.50;24.88;;;;;;;;;;5076007;28;20465;-86
2022/10/31 10:52:00;;;;;;;32.47;22.20;;;;;;;;;;5074130;28;20228;-88
2022/10/31 10:54:45;;;;;;;30.00;22.07;;;;;;;;;;5075320;28;20251;-87
2022/10/31 10:57:11;;;;;;;27.83;21.37;;;;;;;;;;5075441;28;20205;-78
2022/10/31 10:59:38;;;;;;;25.23;20.80;;;;;;;;;;5074401;28;20179;-79
2022/10/31 11:02:04;;;;;;;27.83;21.00;;;;;;;;;;5057803;28;20187;-78
2022/10/31 11:04:35;;;;;;;31.53;21.77;;;;;;;;;;5073598;28;20239;-79
2022/10/31 11:07:02;;;;;;;25.57;21.47;;;;;;;;;;5074592;28;20179;-79
2022/10/31 11:09:28;;;;;;;28.77;22.00;;;;;;;;;;5074468;28;20179;-79
2022/10/31 11:11:55;;;;;;;28.53;21.60;;;;;;;;;;5074258;28;20183;-79
2022/10/31 11:14:22;;;;;;;29.67;21.67;;;;;;;;;;5074480;28;20242;-80
2022/10/31 11:16:51;;;;;;;30.50;21.37;;;;;;;;;;5074188;28;20203;-80
2022/10/31 11:19:22;;;;;;;27.80;21.40;;;;;;;;;;5073926;28;20250;-80
2022/10/31 11:21:48;;;;;;;28.97;21.03;;;;;;;;;;5075237;28;20179;-80
2022/10/31 11:24:15;;;;;;;25.93;20.87;;;;;;;;;;5057338;28;20215;-80
2022/10/31 11:26:43;;;;;;;25.60;20.97;;;;;;;;;;5073971;28;20171;-80
2022/10/31 11:29:16;;;;;;;30.70;22.80;;;;;;;;;;5073258;28;20403;-80
2022/10/31 11:31:42;;;;;;;26.37;20.63;;;;;;;;;;5073947;28;20247;-82
2022/10/31 11:34:17;;;;;;;27.77;20.47;;;;;;;;;;5057380;28;20194;-82
2022/10/31 11:36:44;;;;;;;31.17;21.40;;;;;;;;;;5073845;28;20175;-82
2022/10/31 11:39:22;;;;;;;30.13;22.03;;;;;;;;;;5073618;28;20185;-82
2022/10/31 11:41:49;;;;;;;33.55;25.15;;;;;;;;;;5073946;28;20463;-81
2022/10/31 11:44:23;;;;;;;34.85;26.48;;;;;;;;;;5073135;28;20507;-81
2022/10/31 11:46:51;;;;;;;38.17;25.00;;;;;;;;;;5073592;28;20171;-79
2022/10/31 11:49:17;;;;;;;33.17;24.47;;;;;;;;;;5074951;28;20171;-80
2022/10/31 11:51:43;;;;;;;34.43;24.43;;;;;;;;;;5073400;28;20182;-80
2022/10/31 11:54:21;;;;;;;33.13;24.50;;;;;;;;;;5073280;28;20241;-80
2022/10/31 11:56:47;;;;;;;35.17;24.90;;;;;;;;;;5073414;28;20182;-80
2022/10/31 11:59:18;;;;;;;40.00;25.47;;;;;;;;;;5074552;28;20186;-80
2022/10/31 12:01:48;;;;;;;31.80;23.47;;;;;;;;;;5074570;28;20178;-80
2022/10/31 12:07:01;;;;;;;33.13;23.70;;;;;;;;;;5073399;28;20178;-79
2022/10/31 12:09:29;;;;;;;32.37;23.00;;;;;;;;;;5056897;28;20179;-78
2022/10/31 12:12:11;;;;;;;35.20;23.23;;;;;;;;;;5073355;28;20179;-78
2022/10/31 12:18:03;;;;;;;33.47;23.33;;;;;;;;;;5074427;28;20224;-78
2022/10/31 12:20:47;;;;;;;38.30;25.80;;;;;;;;;;5073001;28;20189;-88
2022/10/31 12:23:19;;;;;;;32.83;24.13;;;;;;;;;;5073060;28;20211;-88
2022/10/31 12:25:53;;;;;;;35.60;26.17;;;;;;;;;;5072926;28;20171;-88
2022/10/31 12:28:19;;;;;;;36.60;25.67;;;;;;;;;;5073301;28;20181;-89
2022/10/31 12:31:04;;;;;;;36.83;26.60;;;;;;;;;;5073045;28;20175;-79
2022/10/31 12:33:42;;;;;;;37.67;27.30;;;;;;;;;;5073110;28;20187;-78
2022/10/31 12:36:14;;;;;;;38.00;28.20;;;;;;;;;;5072963;28;20175;-78
2022/10/31 12:39:00;;;;;;;41.00;27.93;;;;;;;;;;5072887;28;20183;-78
2022/10/31 12:41:50;;;;;;;41.07;28.33;;;;;;;;;;5062545;28;20198;-79
2022/10/31 12:44:42;;;;;;;39.50;28.50;;;;;;;;;;5054526;28;20351;-78
2022/10/31 12:47:27;;;;;;;44.60;28.70;;;;;;;;;;5050425;28;20183;-78
2022/10/31 12:50:12;;;;;;;39.37;28.10;;;;;;;;;;5074106;28;20209;-78
2022/10/31 12:52:44;;;;;;;45.47;28.33;;;;;;;;;;5072847;28;20171;-80
2022/10/31 12:55:22;;;;;;;44.08;31.33;;;;;;;;;;5071798;28;20441;-87
2022/10/31 12:57:53;;;;;;;40.90;28.67;;;;;;;;;;5073244;28;20179;-87
2022/10/31 13:00:20;;;;;;;38.83;27.70;;;;;;;;;;5073749;28;20226;-88
2022/10/31 13:02:56;;;;;;;42.03;29.80;;;;;;;;;;5073127;28;20409;-88
2022/10/31 13:05:22;;;;;;;38.73;27.40;;;;;;;;;;5072805;28;20178;-87
2022/10/31 13:07:54;;;;;;;36.70;25.83;;;;;;;;;;5073907;28;20251;-87
2022/10/31 13:10:26;;;;;;;38.43;27.13;;;;;;;;;;5074156;28;20179;-88
2022/10/31 13:12:53;;;;;;;38.43;26.07;;;;;;;;;;5074067;28;20180;-88
2022/10/31 13:15:22;;;;;;;37.00;27.10;;;;;;;;;;5074992;28;20179;-88
2022/10/31 13:17:50;;;;;;;38.17;25.93;;;;;;;;;;5076468;28;20180;-88
2022/10/31 13:20:29;;;;;;;37.90;26.43;;;;;;;;;;5076549;28;20179;-88
2022/10/31 13:22:57;;;;;;;36.93;26.20;;;;;;;;;;5077658;28;20253;-88
2022/10/31 13:25:30;;;;;;;41.60;25.63;;;;;;;;;;5076607;28;20206;-89
2022/10/31 13:28:01;;;;;;;39.33;27.37;;;;;;;;;;5077185;28;20426;-80
2022/10/31 13:30:32;;;;;;;36.57;26.03;;;;;;;;;;5076175;28;20230;-80
2022/10/31 13:32:58;;;;;;;38.03;25.50;;;;;;;;;;5076546;28;20217;-80
2022/10/31 13:35:32;;;;;;;39.37;25.40;;;;;;;;;;5076087;28;20179;-80
2022/10/31 13:38:17;;;;;;;35.73;25.63;;;;;;;;;;5076061;28;20179;-80
2022/10/31 13:40:46;;;;;;;38.30;26.00;;;;;;;;;;5075832;28;20179;-80
2022/10/31 13:43:18;;;;;;;38.07;26.00;;;;;;;;;;5076903;28;20211;-87
2022/10/31 13:45:49;;;;;;;41.10;26.43;;;;;;;;;;5080244;28;20175;-88
2022/10/31 13:48:15;;;;;;;38.37;24.93;;;;;;;;;;5079600;28;20266;-87
2022/10/31 13:50:41;;;;;;;37.10;26.60;;;;;;;;;;5079506;28;20235;-82
2022/10/31 13:53:21;;;;;;;38.97;25.20;;;;;;;;;;5059119;28;20191;-82
2022/10/31 13:55:48;;;;;;;36.97;25.00;;;;;;;;;;5075891;28;20268;-81
2022/10/31 13:58:23;;;;;;;38.80;26.17;;;;;;;;;;5075964;28;20201;-82
2022/10/31 14:01:04;;;;;;;33.40;24.27;;;;;;;;;;5075445;28;20175;-78
2022/10/31 14:03:31;;;;;;;33.83;24.17;;;;;;;;;;5075281;28;20207;-78
2022/10/31 14:05:57;;;;;;;41.07;24.50;;;;;;;;;;5059370;28;20179;-81
2022/10/31 14:08:24;;;;;;;35.10;23.90;;;;;;;;;;5075443;28;20213;-82
2022/10/31 14:10:52;;;;;;;36.43;24.83;;;;;;;;;;5075382;28;20233;-81
2022/10/31 14:13:44;;;;;;;39.70;24.33;;;;;;;;;;5076527;28;20185;-82
2022/10/31 14:16:27;;;;;;;37.72;27.63;;;;;;;;;;5071371;28;20406;-81
2022/10/31 14:19:01;;;;;;;34.63;24.97;;;;;;;;;;5075310;28;20248;-88
2022/10/31 14:21:29;;;;;;;36.97;23.50;;;;;;;;;;5075359;28;20176;-85
2022/10/31 14:23:55;;;;;;;34.10;23.67;;;;;;;;;;5076332;28;20199;-89
2022/10/31 14:26:28;;;;;;;36.97;23.50;;;;;;;;;;5074196;28;20235;-88
2022/10/31 14:28:55;;;;;;;36.87;24.50;;;;;;;;;;5075127;28;20171;-82
2022/10/31 14:31:41;;;;;;;39.43;24.53;;;;;;;;;;5074850;28;20228;-81
2022/10/31 14:34:23;;;;;;;35.50;23.40;;;;;;;;;;5075268;28;20249;-80
2022/10/31 14:36:58;;;;;;;41.93;23.70;;;;;;;;;;5074916;28;20185;-80
2022/10/31 14:39:44;;;;;;;37.20;23.00;;;;;;;;;;5075107;28;20182;-80